Time;durP1;ratioP1;P1;durP2;ratioP2;P2;SDS_P1;SDS_P2;PMS_P1;PMS_P2;Temp;Humidity;BMP_temperature;BMP_pressure;BME280_temperature;BME280_humidity;BME280_pressure;Samples;Min_cycle;Max_cycle;Signal;HPM_P1;HPM_P2
2024/02/03 00:02:29;;;;;;;2.40;1.30;;;;;;;;;;4782572;30;20640;-81
2024/02/03 00:05:32;;;;;;;1.97;1.10;;;;;;;;;;4792091;30;20189;-81
2024/02/03 00:08:36;;;;;;;1.70;1.27;;;;;;;;;;4782222;30;20225;-81
2024/02/03 00:11:45;;;;;;;1.20;1.10;;;;;;;;;;4782020;30;20197;-81
2024/02/03 00:14:50;;;;;;;1.97;1.10;;;;;;;;;;4781980;30;20182;-82
2024/02/03 00:17:54;;;;;;;1.00;0.90;;;;;;;;;;4792298;30;20225;-82
2024/02/03 00:20:58;;;;;;;2.50;1.20;;;;;;;;;;4792959;30;20193;-82
2024/02/03 00:24:02;;;;;;;1.93;1.30;;;;;;;;;;4782159;30;20264;-82
2024/02/03 00:27:06;;;;;;;1.67;1.13;;;;;;;;;;4792231;30;20186;-82
2024/02/03 00:30:13;;;;;;;1.23;1.00;;;;;;;;;;4792537;30;20644;-82
2024/02/03 00:33:17;;;;;;;3.50;1.33;;;;;;;;;;4791449;30;20194;-82
2024/02/03 00:36:22;;;;;;;1.93;1.33;;;;;;;;;;4780404;30;20225;-81
2024/02/03 00:39:27;;;;;;;2.03;1.30;;;;;;;;;;4780471;30;20217;-83
2024/02/03 00:42:30;;;;;;;1.20;0.97;;;;;;;;;;4779803;30;20190;-83
2024/02/03 00:45:35;;;;;;;2.70;1.30;;;;;;;;;;4790830;30;20194;-84
2024/02/03 00:48:39;;;;;;;1.20;1.10;;;;;;;;;;4790780;30;20233;-83
2024/02/03 00:51:44;;;;;;;1.27;1.13;;;;;;;;;;4779768;30;20197;-83
2024/02/03 00:54:48;;;;;;;0.90;0.90;;;;;;;;;;4779813;30;20198;-83
2024/02/03 00:57:52;;;;;;;2.07;1.37;;;;;;;;;;4779950;30;20225;-83
2024/02/03 01:00:56;;;;;;;1.07;0.97;;;;;;;;;;4769868;30;20193;-83
2024/02/03 01:04:00;;;;;;;2.30;1.30;;;;;;;;;;4779985;30;20198;-83
2024/02/03 01:07:06;;;;;;;1.43;1.10;;;;;;;;;;4769394;30;20541;-83
2024/02/03 01:10:11;;;;;;;1.30;1.00;;;;;;;;;;4790902;30;20193;-84
2024/02/03 01:13:15;;;;;;;1.93;1.30;;;;;;;;;;4779424;30;20194;-83
2024/02/03 01:16:18;;;;;;;3.10;1.00;;;;;;;;;;4779584;30;20221;-84
2024/02/03 01:19:23;;;;;;;1.23;1.07;;;;;;;;;;4779677;30;20190;-83
2024/02/03 01:22:27;;;;;;;1.53;1.20;;;;;;;;;;4779733;30;20197;-84
2024/02/03 01:25:31;;;;;;;2.63;0.97;;;;;;;;;;4790390;30;20193;-83
2024/02/03 01:28:35;;;;;;;1.60;1.07;;;;;;;;;;4780821;30;20229;-84
2024/02/03 01:31:40;;;;;;;1.53;1.17;;;;;;;;;;4801691;29;20193;-84
2024/02/03 01:34:44;;;;;;;1.77;1.40;;;;;;;;;;4779918;30;20537;-83
2024/02/03 01:37:48;;;;;;;1.57;1.17;;;;;;;;;;4790467;30;20600;-83
2024/02/03 01:40:52;;;;;;;1.00;0.90;;;;;;;;;;4779890;30;20213;-83
2024/02/03 01:43:57;;;;;;;1.63;1.10;;;;;;;;;;4789770;30;20534;-83
2024/02/03 01:47:01;;;;;;;1.63;1.00;;;;;;;;;;4790567;29;20197;-83
2024/02/03 01:50:07;;;;;;;1.50;1.03;;;;;;;;;;4782952;30;20193;-83
2024/02/03 01:53:13;;;;;;;1.07;0.97;;;;;;;;;;4783172;30;20201;-83
2024/02/03 01:56:20;;;;;;;1.03;0.90;;;;;;;;;;4794072;30;20217;-83
2024/02/03 01:59:27;;;;;;;2.53;1.20;;;;;;;;;;4803423;29;20201;-83
2024/02/03 02:02:32;;;;;;;2.47;1.10;;;;;;;;;;4793889;30;20193;-83
2024/02/03 02:05:36;;;;;;;1.77;1.20;;;;;;;;;;4802937;29;20193;-84
2024/02/03 02:08:40;;;;;;;1.10;1.00;;;;;;;;;;4782782;30;20233;-83
2024/02/03 02:11:44;;;;;;;1.17;1.00;;;;;;;;;;4782792;30;20194;-83
2024/02/03 02:14:49;;;;;;;2.90;1.10;;;;;;;;;;4793268;30;20190;-83
2024/02/03 02:18:00;;;;;;;1.40;1.10;;;;;;;;;;4782645;30;20245;-83
2024/02/03 02:21:06;;;;;;;1.33;1.10;;;;;;;;;;4793587;30;20189;-83
2024/02/03 02:24:10;;;;;;;1.33;0.90;;;;;;;;;;4782339;30;20194;-83
2024/02/03 02:27:14;;;;;;;2.50;1.00;;;;;;;;;;4782036;30;20699;-83
2024/02/03 02:30:18;;;;;;;1.93;1.73;;;;;;;;;;4793128;30;20198;-83
2024/02/03 02:33:23;;;;;;;2.23;1.20;;;;;;;;;;4782266;30;20190;-83
2024/02/03 02:36:27;;;;;;;1.30;1.00;;;;;;;;;;4781821;30;20222;-83
2024/02/03 02:39:31;;;;;;;1.87;1.20;;;;;;;;;;4781997;30;20197;-83
2024/02/03 02:42:36;;;;;;;1.00;0.90;;;;;;;;;;4793154;30;20194;-83
2024/02/03 02:45:39;;;;;;;1.83;1.07;;;;;;;;;;4781714;30;20197;-82
2024/02/03 02:48:44;;;;;;;1.57;1.10;;;;;;;;;;4792067;30;20225;-83
2024/02/03 02:51:49;;;;;;;1.80;1.20;;;;;;;;;;4792474;30;20193;-83
2024/02/03 02:54:56;;;;;;;2.23;1.10;;;;;;;;;;4782212;30;20194;-83
2024/02/03 02:58:00;;;;;;;1.57;1.00;;;;;;;;;;4781397;30;20245;-83
2024/02/03 03:01:04;;;;;;;1.10;1.00;;;;;;;;;;4781342;30;20217;-83
2024/02/03 03:04:08;;;;;;;1.60;1.17;;;;;;;;;;4781599;30;20194;-83
2024/02/03 03:07:15;;;;;;;1.20;1.10;;;;;;;;;;4781266;30;20228;-83
2024/02/03 03:10:19;;;;;;;1.40;0.90;;;;;;;;;;4781253;30;20641;-83
2024/02/03 03:13:23;;;;;;;1.40;1.20;;;;;;;;;;4781318;30;20193;-83
2024/02/03 03:16:27;;;;;;;1.20;0.90;;;;;;;;;;4792061;30;20217;-83
2024/02/03 03:19:35;;;;;;;1.57;1.13;;;;;;;;;;4781230;30;20194;-84
2024/02/03 03:22:40;;;;;;;1.37;1.00;;;;;;;;;;4792183;30;20197;-83
2024/02/03 03:25:44;;;;;;;1.50;1.00;;;;;;;;;;4792393;30;20198;-83
2024/02/03 03:28:49;;;;;;;1.10;1.00;;;;;;;;;;4792130;30;20229;-83
2024/02/03 03:31:53;;;;;;;1.47;1.17;;;;;;;;;;4792813;30;20194;-84
2024/02/03 03:34:57;;;;;;;1.10;1.00;;;;;;;;;;4782155;30;20636;-83
2024/02/03 03:38:02;;;;;;;1.10;1.00;;;;;;;;;;4782128;30;20249;-83
2024/02/03 03:41:11;;;;;;;2.30;1.10;;;;;;;;;;4796532;29;20565;-83
2024/02/03 03:44:15;;;;;;;1.47;1.00;;;;;;;;;;4792705;30;20194;-83
2024/02/03 03:47:21;;;;;;;1.37;0.90;;;;;;;;;;4781866;30;20229;-83
2024/02/03 03:50:25;;;;;;;1.30;1.20;;;;;;;;;;4781418;30;20193;-83
2024/02/03 03:53:29;;;;;;;1.50;1.37;;;;;;;;;;4781279;30;20546;-83
2024/02/03 03:56:33;;;;;;;1.20;1.10;;;;;;;;;;4771138;30;20221;-83
2024/02/03 03:59:40;;;;;;;1.77;1.20;;;;;;;;;;4781857;30;20197;-83
2024/02/03 04:02:46;;;;;;;1.27;1.13;;;;;;;;;;4781644;30;20541;-83
2024/02/03 04:05:50;;;;;;;2.00;1.30;;;;;;;;;;4791923;30;20198;-83
2024/02/03 04:08:54;;;;;;;2.00;1.10;;;;;;;;;;4781013;30;20225;-84
2024/02/03 04:11:58;;;;;;;2.40;1.20;;;;;;;;;;4781174;30;20537;-83
2024/02/03 04:15:03;;;;;;;1.50;1.10;;;;;;;;;;4781423;30;20656;-83
2024/02/03 04:18:08;;;;;;;2.33;1.63;;;;;;;;;;4780778;30;20257;-83
2024/02/03 04:21:13;;;;;;;1.77;1.30;;;;;;;;;;4781224;30;20194;-83
2024/02/03 04:24:17;;;;;;;1.30;1.00;;;;;;;;;;4770510;30;20197;-83
2024/02/03 04:27:21;;;;;;;1.33;1.00;;;;;;;;;;4780551;30;20687;-83
2024/02/03 04:30:25;;;;;;;1.80;1.30;;;;;;;;;;4791805;30;20647;-83
2024/02/03 04:33:29;;;;;;;2.60;1.23;;;;;;;;;;4791585;30;20190;-83
2024/02/03 04:36:33;;;;;;;3.77;1.60;;;;;;;;;;4791663;30;20193;-84
2024/02/03 04:39:38;;;;;;;2.03;1.60;;;;;;;;;;4780546;30;20198;-83
2024/02/03 04:42:42;;;;;;;2.10;1.50;;;;;;;;;;4791753;30;20202;-83
2024/02/03 04:45:46;;;;;;;1.87;1.37;;;;;;;;;;4780922;30;20640;-83
2024/02/03 04:48:50;;;;;;;1.67;1.37;;;;;;;;;;4780837;30;20225;-83
2024/02/03 04:51:54;;;;;;;2.37;1.63;;;;;;;;;;4790956;30;20536;-83
2024/02/03 04:54:59;;;;;;;1.60;1.50;;;;;;;;;;4791002;30;20193;-83
2024/02/03 04:58:03;;;;;;;1.97;1.30;;;;;;;;;;4791704;30;20241;-83
2024/02/03 05:01:08;;;;;;;1.40;1.20;;;;;;;;;;4791440;30;20549;-83
2024/02/03 05:04:12;;;;;;;2.07;1.20;;;;;;;;;;4780210;30;20198;-83
2024/02/03 05:07:16;;;;;;;1.50;1.27;;;;;;;;;;4780386;30;20224;-83
2024/02/03 05:10:21;;;;;;;2.10;1.30;;;;;;;;;;4780095;30;20648;-82
2024/02/03 05:13:25;;;;;;;2.60;1.60;;;;;;;;;;4791112;30;20193;-83
2024/02/03 05:16:29;;;;;;;2.83;1.50;;;;;;;;;;4769855;30;20193;-83
2024/02/03 05:19:33;;;;;;;1.40;1.30;;;;;;;;;;4780177;30;20194;-83
2024/02/03 05:22:38;;;;;;;1.90;1.53;;;;;;;;;;4781489;30;20194;-83
2024/02/03 05:25:42;;;;;;;1.93;1.50;;;;;;;;;;4794546;30;20193;-83
2024/02/03 05:28:47;;;;;;;1.70;1.40;;;;;;;;;;4794161;30;20573;-83
2024/02/03 05:31:51;;;;;;;2.03;1.67;;;;;;;;;;4782962;30;20197;-83
2024/02/03 05:34:55;;;;;;;2.20;1.60;;;;;;;;;;4782706;30;20201;-83
2024/02/03 05:37:59;;;;;;;3.17;1.77;;;;;;;;;;4793607;30;20241;-83
2024/02/03 05:41:05;;;;;;;4.13;1.50;;;;;;;;;;4782921;30;20217;-83
2024/02/03 05:44:09;;;;;;;2.67;1.90;;;;;;;;;;4782719;30;20194;-83
2024/02/03 05:47:13;;;;;;;2.60;1.50;;;;;;;;;;4783070;30;20221;-83
2024/02/03 05:50:17;;;;;;;2.37;2.00;;;;;;;;;;4783058;30;20189;-83
2024/02/03 05:53:21;;;;;;;2.90;1.97;;;;;;;;;;4793572;30;20198;-83
2024/02/03 05:56:26;;;;;;;3.47;2.00;;;;;;;;;;4793565;30;20640;-83
2024/02/03 05:59:31;;;;;;;4.37;2.63;;;;;;;;;;4793253;30;20190;-83
2024/02/03 06:02:35;;;;;;;2.90;2.37;;;;;;;;;;4793562;30;20632;-83
2024/02/03 06:05:39;;;;;;;3.30;2.30;;;;;;;;;;4803032;29;20201;-83
2024/02/03 06:08:43;;;;;;;4.73;2.50;;;;;;;;;;4793228;30;20233;-81
2024/02/03 06:11:48;;;;;;;4.13;2.30;;;;;;;;;;4782802;30;20193;-84
2024/02/03 06:14:52;;;;;;;2.80;2.30;;;;;;;;;;4784723;30;20189;-83
2024/02/03 06:17:56;;;;;;;3.40;2.60;;;;;;;;;;4781916;30;20241;-83
2024/02/03 06:21:01;;;;;;;4.57;2.60;;;;;;;;;;4793644;30;20190;-83
2024/02/03 06:24:05;;;;;;;2.63;2.30;;;;;;;;;;4793093;30;20198;-83
2024/02/03 06:27:09;;;;;;;3.47;2.60;;;;;;;;;;4782007;30;20197;-83
2024/02/03 06:30:14;;;;;;;3.90;2.50;;;;;;;;;;4802594;29;20197;-82
2024/02/03 06:33:18;;;;;;;2.77;2.30;;;;;;;;;;4792867;29;20201;-82
2024/02/03 06:36:22;;;;;;;3.13;2.50;;;;;;;;;;4781844;30;20197;-82
2024/02/03 06:39:26;;;;;;;3.80;2.63;;;;;;;;;;4782851;30;20546;-86
2024/02/03 06:42:31;;;;;;;4.03;2.50;;;;;;;;;;4793380;30;20185;-87
2024/02/03 06:45:36;;;;;;;4.23;3.00;;;;;;;;;;4780851;30;20186;-85
2024/02/03 06:48:41;;;;;;;3.23;2.70;;;;;;;;;;4791529;30;20715;-86
2024/02/03 06:51:45;;;;;;;3.10;2.50;;;;;;;;;;4791313;30;20193;-86
2024/02/03 06:54:51;;;;;;;14.57;9.27;;;;;;;;;;4792312;30;20190;-87
2024/02/03 06:57:55;;;;;;;14.57;11.33;;;;;;;;;;4780592;30;20241;-86
2024/02/03 07:00:59;;;;;;;6.37;4.37;;;;;;;;;;4780593;30;20269;-86
2024/02/03 07:04:04;;;;;;;5.10;3.30;;;;;;;;;;4792030;30;20561;-86
2024/02/03 07:07:08;;;;;;;4.90;3.13;;;;;;;;;;4780552;30;20197;-85
2024/02/03 07:10:12;;;;;;;7.27;3.20;;;;;;;;;;4770206;30;20194;-86
2024/02/03 07:13:16;;;;;;;5.60;4.27;;;;;;;;;;4780610;30;20194;-86
2024/02/03 07:16:20;;;;;;;4.70;3.60;;;;;;;;;;4780179;30;20190;-88
2024/02/03 07:19:25;;;;;;;4.77;3.53;;;;;;;;;;4780422;30;20221;-86
2024/02/03 07:22:30;;;;;;;4.70;3.27;;;;;;;;;;4770133;30;20193;-87
2024/02/03 07:25:34;;;;;;;5.47;3.20;;;;;;;;;;4791232;30;20198;-87
2024/02/03 07:28:38;;;;;;;5.80;3.80;;;;;;;;;;4770032;30;20217;-86
2024/02/03 07:32:18;;;;;;;3.43;2.97;;;;;;;;;;4779917;30;20194;-86
2024/02/03 07:37:14;;;;;;;3.53;2.70;;;;;;;;;;4795105;29;20194;-86
2024/02/03 07:40:19;;;;;;;6.57;3.67;;;;;;;;;;4780872;30;20521;-85
2024/02/03 07:43:23;;;;;;;6.43;2.90;;;;;;;;;;4791919;30;20648;-84
2024/02/03 07:46:27;;;;;;;5.13;3.17;;;;;;;;;;4780056;30;20193;-84
2024/02/03 07:49:31;;;;;;;4.23;3.53;;;;;;;;;;4781697;30;20194;-84
2024/02/03 07:52:35;;;;;;;4.67;3.53;;;;;;;;;;4780826;30;20652;-82
2024/02/03 07:55:40;;;;;;;4.47;3.27;;;;;;;;;;4780869;30;20193;-84
2024/02/03 07:58:45;;;;;;;4.10;3.03;;;;;;;;;;4791038;30;20237;-84
2024/02/03 08:01:50;;;;;;;15.23;10.03;;;;;;;;;;4780994;30;20193;-84
2024/02/03 08:04:54;;;;;;;7.10;5.67;;;;;;;;;;4802095;29;20201;-85
2024/02/03 08:07:59;;;;;;;5.17;3.90;;;;;;;;;;4780599;30;20711;-84
2024/02/03 08:11:03;;;;;;;4.37;3.90;;;;;;;;;;4780290;30;20194;-84
2024/02/03 08:14:07;;;;;;;5.70;3.17;;;;;;;;;;4791438;30;20190;-83
2024/02/03 08:17:11;;;;;;;4.63;3.77;;;;;;;;;;4780162;30;20190;-84
2024/02/03 08:20:16;;;;;;;5.20;3.93;;;;;;;;;;4790999;30;20194;-83
2024/02/03 08:23:20;;;;;;;4.33;3.60;;;;;;;;;;4779602;30;20193;-84
2024/02/03 08:26:25;;;;;;;4.87;3.90;;;;;;;;;;4779835;30;20544;-83
2024/02/03 08:29:29;;;;;;;4.10;3.50;;;;;;;;;;4790941;30;20194;-83
2024/02/03 08:32:33;;;;;;;4.97;2.90;;;;;;;;;;4779544;30;20198;-84
2024/02/03 08:35:37;;;;;;;4.60;3.40;;;;;;;;;;4779658;30;20202;-83
2024/02/03 08:38:42;;;;;;;4.47;2.87;;;;;;;;;;4791183;30;20233;-78
2024/02/03 08:41:46;;;;;;;3.77;2.70;;;;;;;;;;4791686;30;20217;-78
2024/02/03 08:44:50;;;;;;;3.37;2.53;;;;;;;;;;4790784;30;20197;-84
2024/02/03 08:47:54;;;;;;;6.17;3.10;;;;;;;;;;4799999;29;20632;-85
2024/02/03 08:50:59;;;;;;;9.23;5.97;;;;;;;;;;4779129;30;20194;-85
2024/02/03 08:54:03;;;;;;;26.47;18.60;;;;;;;;;;4790450;30;20189;-85
2024/02/03 08:57:07;;;;;;;5.10;3.63;;;;;;;;;;4778356;30;20204;-84
2024/02/03 09:00:12;;;;;;;3.80;2.90;;;;;;;;;;4790857;30;20526;-84
2024/02/03 09:03:15;;;;;;;5.60;3.57;;;;;;;;;;4799206;29;20652;-79
2024/02/03 09:06:20;;;;;;;3.53;3.10;;;;;;;;;;4790024;30;20189;-85
2024/02/03 09:09:24;;;;;;;3.57;3.07;;;;;;;;;;4779648;30;20652;-85
2024/02/03 09:12:29;;;;;;;4.90;3.60;;;;;;;;;;4779303;30;20193;-85
2024/02/03 09:15:32;;;;;;;5.20;3.20;;;;;;;;;;4779074;30;20194;-85
2024/02/03 09:18:36;;;;;;;4.07;3.63;;;;;;;;;;4777881;30;20581;-85
2024/02/03 09:21:41;;;;;;;4.03;3.23;;;;;;;;;;4778502;30;20197;-85
2024/02/03 09:24:46;;;;;;;4.10;3.10;;;;;;;;;;4779037;30;20198;-85
2024/02/03 09:27:51;;;;;;;3.67;2.87;;;;;;;;;;4779547;30;20233;-84
2024/02/03 09:30:55;;;;;;;4.23;3.13;;;;;;;;;;4779500;30;20202;-84
2024/02/03 09:34:03;;;;;;;6.17;3.40;;;;;;;;;;4769599;30;20198;-84
2024/02/03 09:37:07;;;;;;;3.73;2.90;;;;;;;;;;4779993;30;20185;-85
2024/02/03 09:40:19;;;;;;;4.27;3.37;;;;;;;;;;4777844;30;20237;-85
2024/02/03 09:43:25;;;;;;;4.83;3.53;;;;;;;;;;4789453;30;20194;-85
2024/02/03 09:46:29;;;;;;;3.83;3.20;;;;;;;;;;4777711;30;20194;-85
2024/02/03 09:49:33;;;;;;;4.23;3.43;;;;;;;;;;4788281;30;20193;-85
2024/02/03 09:52:37;;;;;;;3.63;3.30;;;;;;;;;;4788811;30;20632;-86
2024/02/03 09:55:41;;;;;;;5.07;3.80;;;;;;;;;;4788623;30;20206;-85
2024/02/03 09:58:45;;;;;;;4.30;3.30;;;;;;;;;;4777594;30;20241;-85
2024/02/03 10:01:50;;;;;;;4.10;3.20;;;;;;;;;;4788695;30;20198;-85
2024/02/03 10:04:55;;;;;;;5.13;3.30;;;;;;;;;;4789106;30;20533;-86
2024/02/03 10:08:00;;;;;;;3.23;2.93;;;;;;;;;;4778046;29;20229;-86
2024/02/03 10:11:04;;;;;;;4.33;3.30;;;;;;;;;;4781080;30;20194;-85
2024/02/03 10:14:21;;;;;;;3.93;3.50;;;;;;;;;;4782019;30;20193;-86
2024/02/03 10:17:28;;;;;;;3.27;2.97;;;;;;;;;;4801486;29;20229;-85
2024/02/03 10:20:32;;;;;;;3.93;2.97;;;;;;;;;;4780816;30;20186;-86
2024/02/03 10:23:40;;;;;;;5.17;3.33;;;;;;;;;;4782240;30;20197;-86
2024/02/03 10:27:04;;;;;;;4.20;3.50;;;;;;;;;;4792868;30;20186;-86
2024/02/03 10:30:08;;;;;;;4.33;3.67;;;;;;;;;;4792695;30;20194;-86
2024/02/03 10:33:13;;;;;;;3.70;3.20;;;;;;;;;;4800707;29;20197;-86
2024/02/03 10:36:16;;;;;;;4.60;3.00;;;;;;;;;;4780113;30;20197;-86
2024/02/03 10:39:21;;;;;;;4.07;3.00;;;;;;;;;;4791254;30;20568;-86
2024/02/03 10:42:25;;;;;;;4.00;3.10;;;;;;;;;;4771349;30;20221;-86
2024/02/03 10:45:31;;;;;;;5.50;2.77;;;;;;;;;;4792908;30;20648;-86
2024/02/03 10:48:47;;;;;;;3.37;3.00;;;;;;;;;;4791678;30;20233;-86
2024/02/03 10:51:53;;;;;;;3.17;2.53;;;;;;;;;;4801551;29;20194;-86
2024/02/03 10:54:59;;;;;;;5.03;2.53;;;;;;;;;;4801977;29;20198;-86
2024/02/03 10:58:04;;;;;;;3.57;2.87;;;;;;;;;;4781071;30;20233;-86
2024/02/03 11:01:17;;;;;;;2.83;2.53;;;;;;;;;;4781067;30;20562;-86
2024/02/03 11:04:21;;;;;;;3.00;2.50;;;;;;;;;;4780918;30;20194;-86
2024/02/03 11:07:26;;;;;;;2.77;2.40;;;;;;;;;;4780459;30;20225;-86
2024/02/03 11:10:30;;;;;;;2.67;2.47;;;;;;;;;;4779646;30;20189;-86
2024/02/03 11:13:38;;;;;;;3.97;2.57;;;;;;;;;;4780062;30;20202;-86
2024/02/03 11:16:42;;;;;;;3.40;2.50;;;;;;;;;;4779724;30;20201;-86
2024/02/03 11:19:46;;;;;;;2.63;2.27;;;;;;;;;;4779385;29;20225;-86
2024/02/03 11:22:54;;;;;;;2.30;2.10;;;;;;;;;;4790393;30;20640;-86
2024/02/03 11:25:59;;;;;;;3.33;2.50;;;;;;;;;;4779206;30;20198;-86
2024/02/03 11:29:04;;;;;;;2.63;2.10;;;;;;;;;;4779559;30;20230;-86
2024/02/03 11:32:08;;;;;;;3.13;2.50;;;;;;;;;;4790503;30;20644;-86
2024/02/03 11:35:17;;;;;;;3.20;2.73;;;;;;;;;;4790500;30;20194;-86
2024/02/03 11:38:21;;;;;;;2.87;2.30;;;;;;;;;;4790068;30;20711;-86
2024/02/03 11:41:26;;;;;;;2.97;2.37;;;;;;;;;;4790105;30;20217;-86
2024/02/03 11:44:50;;;;;;;3.40;2.73;;;;;;;;;;4790020;30;20193;-86
2024/02/03 11:47:54;;;;;;;2.97;2.60;;;;;;;;;;4779182;30;20573;-86
2024/02/03 11:50:58;;;;;;;4.87;2.60;;;;;;;;;;4779086;30;20193;-86
2024/02/03 11:54:03;;;;;;;3.03;2.30;;;;;;;;;;4779363;30;20193;-85
2024/02/03 11:57:08;;;;;;;3.57;2.60;;;;;;;;;;4790314;30;20198;-85
2024/02/03 12:00:14;;;;;;;3.17;2.77;;;;;;;;;;4778875;30;20225;-86
2024/02/03 12:03:18;;;;;;;4.57;2.83;;;;;;;;;;4779326;30;20201;-86
2024/02/03 12:06:22;;;;;;;3.70;2.50;;;;;;;;;;4768847;30;20541;-86
2024/02/03 12:09:26;;;;;;;2.80;2.50;;;;;;;;;;4790603;30;20206;-86
2024/02/03 12:12:30;;;;;;;14.03;7.67;;;;;;;;;;4779363;30;20202;-86
2024/02/03 12:15:34;;;;;;;2.80;2.30;;;;;;;;;;4779159;30;20205;-86
2024/02/03 12:18:39;;;;;;;4.83;3.57;;;;;;;;;;4779088;30;20225;-86
2024/02/03 12:21:46;;;;;;;8.13;4.73;;;;;;;;;;4778936;30;20182;-85
2024/02/03 12:24:51;;;;;;;2.93;2.50;;;;;;;;;;4778979;30;20190;-86
2024/02/03 12:27:55;;;;;;;3.23;2.40;;;;;;;;;;4778937;30;20572;-85
2024/02/03 12:31:00;;;;;;;4.63;1.87;;;;;;;;;;4790197;29;20185;-86
2024/02/03 12:34:04;;;;;;;5.80;3.37;;;;;;;;;;4778922;30;20198;-86
2024/02/03 12:37:08;;;;;;;23.50;10.20;;;;;;;;;;4778626;30;20194;-86
2024/02/03 12:40:12;;;;;;;5.83;3.40;;;;;;;;;;4790461;30;20240;-86
2024/02/03 12:43:17;;;;;;;13.27;8.23;;;;;;;;;;4779625;30;20190;-84
2024/02/03 12:46:23;;;;;;;4.63;2.70;;;;;;;;;;4791191;30;20201;-84
2024/02/03 12:49:27;;;;;;;2.00;1.80;;;;;;;;;;4769587;30;20657;-83
2024/02/03 12:52:31;;;;;;;2.30;1.93;;;;;;;;;;4790215;30;20197;-84
2024/02/03 12:55:35;;;;;;;3.50;1.83;;;;;;;;;;4790590;30;20197;-84
2024/02/03 12:58:43;;;;;;;2.10;1.87;;;;;;;;;;4790220;30;20237;-82
2024/02/03 13:01:47;;;;;;;3.47;2.00;;;;;;;;;;4790976;30;20186;-83
2024/02/03 13:04:51;;;;;;;2.00;1.80;;;;;;;;;;4779585;30;20197;-84
2024/02/03 13:07:56;;;;;;;2.73;2.40;;;;;;;;;;4790922;30;20233;-83
2024/02/03 13:11:01;;;;;;;2.60;1.90;;;;;;;;;;4790975;30;20198;-84
2024/02/03 13:14:06;;;;;;;3.20;2.50;;;;;;;;;;4779559;30;20197;-83
2024/02/03 13:17:10;;;;;;;3.70;2.73;;;;;;;;;;4779045;30;20197;-84
2024/02/03 13:20:14;;;;;;;4.73;2.20;;;;;;;;;;4779145;30;20565;-83
2024/02/03 13:23:18;;;;;;;6.20;2.27;;;;;;;;;;4791881;30;20194;-83
2024/02/03 13:26:23;;;;;;;4.70;2.47;;;;;;;;;;4779214;30;20659;-85
2024/02/03 13:29:27;;;;;;;3.83;2.33;;;;;;;;;;4789631;29;20194;-85
2024/02/03 13:32:31;;;;;;;2.23;2.03;;;;;;;;;;4791623;30;20197;-85
2024/02/03 13:35:36;;;;;;;2.50;2.03;;;;;;;;;;4790537;30;20198;-84
2024/02/03 13:38:41;;;;;;;2.53;2.30;;;;;;;;;;4788994;30;20234;-84
2024/02/03 13:41:45;;;;;;;2.50;2.30;;;;;;;;;;4789671;30;20217;-83
2024/02/03 13:44:50;;;;;;;5.70;2.30;;;;;;;;;;4782596;30;20671;-85
2024/02/03 13:47:58;;;;;;;2.80;2.13;;;;;;;;;;4783401;30;20225;-85
2024/02/03 13:51:02;;;;;;;3.97;2.47;;;;;;;;;;4802377;29;20549;-84
2024/02/03 13:54:06;;;;;;;3.23;2.63;;;;;;;;;;4795261;30;20201;-84
2024/02/03 13:57:11;;;;;;;4.27;2.33;;;;;;;;;;4793535;30;20193;-84
2024/02/03 14:00:16;;;;;;;3.53;2.37;;;;;;;;;;4781941;30;20222;-86
2024/02/03 14:03:20;;;;;;;2.50;2.30;;;;;;;;;;4760888;30;20189;-86
2024/02/03 14:06:26;;;;;;;2.53;2.13;;;;;;;;;;4781294;30;20193;-86
2024/02/03 14:09:30;;;;;;;3.50;2.63;;;;;;;;;;4782549;30;20197;-86
2024/02/03 14:12:34;;;;;;;2.50;1.93;;;;;;;;;;4780926;30;20660;-86
2024/02/03 14:15:38;;;;;;;3.07;1.83;;;;;;;;;;4791624;30;20193;-84
2024/02/03 14:18:43;;;;;;;1.97;1.20;;;;;;;;;;4791419;30;20584;-86
2024/02/03 14:21:47;;;;;;;1.97;1.40;;;;;;;;;;4781418;30;20202;-82
2024/02/03 14:24:51;;;;;;;3.37;1.40;;;;;;;;;;4793007;30;20190;-82
2024/02/03 14:27:55;;;;;;;2.53;1.40;;;;;;;;;;4782754;30;20233;-83
2024/02/03 14:30:59;;;;;;;2.33;1.40;;;;;;;;;;4793892;30;20194;-82
2024/02/03 14:34:03;;;;;;;2.17;1.30;;;;;;;;;;4781635;30;20513;-81
2024/02/03 14:37:08;;;;;;;2.67;1.50;;;;;;;;;;4781946;30;20660;-81
2024/02/03 14:40:12;;;;;;;1.50;1.30;;;;;;;;;;4791967;30;20225;-82
2024/02/03 14:43:16;;;;;;;1.37;1.23;;;;;;;;;;4781292;30;20194;-80
2024/02/03 14:46:22;;;;;;;2.13;1.47;;;;;;;;;;4791491;30;20255;-79
2024/02/03 14:49:26;;;;;;;1.40;1.30;;;;;;;;;;4791270;30;20190;-80
2024/02/03 14:52:30;;;;;;;1.43;1.10;;;;;;;;;;4791930;30;20541;-82
2024/02/03 14:55:34;;;;;;;2.10;1.17;;;;;;;;;;4791559;29;20653;-82
2024/02/03 14:58:40;;;;;;;3.60;1.43;;;;;;;;;;4793742;30;20228;-83
2024/02/03 15:01:44;;;;;;;2.43;1.30;;;;;;;;;;4782675;30;20229;-81
2024/02/03 15:04:48;;;;;;;1.77;1.40;;;;;;;;;;4782948;30;20190;-83
2024/02/03 15:07:54;;;;;;;1.73;1.20;;;;;;;;;;4793815;30;20234;-80
2024/02/03 15:10:58;;;;;;;4.27;1.40;;;;;;;;;;4794041;30;20198;-87
2024/02/03 15:14:02;;;;;;;1.70;1.50;;;;;;;;;;4782822;30;20194;-82
2024/02/03 15:17:06;;;;;;;3.93;2.93;;;;;;;;;;4789629;30;20198;-82
2024/02/03 15:20:11;;;;;;;2.23;2.03;;;;;;;;;;4797142;30;20221;-84
2024/02/03 15:23:15;;;;;;;2.83;1.80;;;;;;;;;;4792626;30;20545;-81
2024/02/03 15:26:19;;;;;;;2.07;1.87;;;;;;;;;;4794649;30;20201;-80
2024/02/03 15:29:23;;;;;;;3.03;2.40;;;;;;;;;;4794793;30;20198;-80
2024/02/03 15:32:27;;;;;;;3.23;1.90;;;;;;;;;;4805449;29;20194;-80
2024/02/03 15:35:31;;;;;;;2.00;1.63;;;;;;;;;;4798033;30;20194;-81
2024/02/03 15:38:35;;;;;;;3.03;1.43;;;;;;;;;;4787909;30;20247;-82
2024/02/03 15:41:39;;;;;;;2.03;1.60;;;;;;;;;;4787689;30;20241;-84
2024/02/03 15:44:43;;;;;;;1.47;1.27;;;;;;;;;;4789059;30;20645;-83
2024/02/03 15:47:49;;;;;;;1.70;1.50;;;;;;;;;;4788963;30;20233;-80
2024/02/03 15:50:54;;;;;;;3.23;1.70;;;;;;;;;;4789628;30;20190;-80
2024/02/03 15:53:58;;;;;;;2.60;1.60;;;;;;;;;;4799475;30;20198;-80
2024/02/03 15:57:05;;;;;;;2.23;1.33;;;;;;;;;;4787735;30;20194;-80
2024/02/03 16:00:10;;;;;;;1.83;1.53;;;;;;;;;;4808781;29;20230;-80
2024/02/03 16:03:17;;;;;;;2.27;1.40;;;;;;;;;;4799657;30;20201;-81
2024/02/03 16:06:22;;;;;;;2.00;1.20;;;;;;;;;;4798431;29;20640;-81
2024/02/03 16:09:26;;;;;;;1.73;1.30;;;;;;;;;;4787757;30;20198;-81
2024/02/03 16:12:31;;;;;;;1.40;1.30;;;;;;;;;;4798650;30;20190;-81
2024/02/03 16:15:35;;;;;;;2.20;1.40;;;;;;;;;;4787291;30;20553;-81
2024/02/03 16:18:39;;;;;;;1.53;1.20;;;;;;;;;;4797809;30;20229;-80
2024/02/03 16:21:44;;;;;;;4.13;1.20;;;;;;;;;;4796891;30;20217;-80
2024/02/03 16:24:48;;;;;;;1.60;1.37;;;;;;;;;;4785812;30;20198;-81
2024/02/03 16:27:52;;;;;;;1.30;1.20;;;;;;;;;;4786382;30;20233;-81
2024/02/03 16:30:57;;;;;;;2.73;1.93;;;;;;;;;;4796423;30;20186;-81
2024/02/03 16:34:01;;;;;;;1.70;1.60;;;;;;;;;;4796129;30;20197;-81
2024/02/03 16:37:05;;;;;;;1.50;1.33;;;;;;;;;;4796740;30;20197;-81
2024/02/03 16:40:11;;;;;;;1.53;1.17;;;;;;;;;;4795664;30;20197;-81
2024/02/03 16:43:15;;;;;;;1.33;1.23;;;;;;;;;;4784385;30;20190;-81
2024/02/03 16:46:19;;;;;;;1.60;1.40;;;;;;;;;;4796326;30;20194;-81
2024/02/03 16:49:25;;;;;;;1.60;1.50;;;;;;;;;;4804657;29;20194;-81
2024/02/03 16:52:29;;;;;;;3.43;2.40;;;;;;;;;;4783943;30;20193;-80
2024/02/03 16:55:35;;;;;;;2.37;1.97;;;;;;;;;;4794905;30;20194;-81
2024/02/03 16:58:40;;;;;;;2.30;1.70;;;;;;;;;;4783457;30;20229;-80
2024/02/03 17:01:45;;;;;;;1.83;1.50;;;;;;;;;;4782939;30;20221;-80
2024/02/03 17:04:50;;;;;;;2.33;1.60;;;;;;;;;;4782271;30;20525;-81
2024/02/03 17:07:54;;;;;;;2.43;1.43;;;;;;;;;;4793846;30;20229;-80
2024/02/03 17:10:59;;;;;;;2.53;1.90;;;;;;;;;;4793608;30;20197;-80
2024/02/03 17:14:04;;;;;;;1.73;1.43;;;;;;;;;;4793150;30;20194;-81
2024/02/03 17:17:08;;;;;;;1.73;1.50;;;;;;;;;;4792033;30;20652;-82
2024/02/03 17:20:12;;;;;;;1.17;1.07;;;;;;;;;;4796904;30;20193;-82
2024/02/03 17:23:16;;;;;;;2.20;1.60;;;;;;;;;;4796909;30;20198;-82
2024/02/03 17:26:20;;;;;;;1.90;1.67;;;;;;;;;;4785189;30;20537;-81
2024/02/03 17:29:24;;;;;;;1.70;1.60;;;;;;;;;;4795840;30;20197;-82
2024/02/03 17:32:29;;;;;;;1.60;1.30;;;;;;;;;;4784909;30;20193;-83
2024/02/03 17:35:33;;;;;;;1.13;1.03;;;;;;;;;;4775106;30;20189;-83
2024/02/03 17:38:38;;;;;;;1.63;1.30;;;;;;;;;;4784174;30;20237;-83
2024/02/03 17:41:42;;;;;;;2.10;1.40;;;;;;;;;;4784519;30;20232;-80
2024/02/03 17:44:47;;;;;;;1.60;1.50;;;;;;;;;;4797124;30;20198;-85
2024/02/03 17:47:52;;;;;;;3.23;1.20;;;;;;;;;;4783653;30;20229;-83
2024/02/03 17:50:58;;;;;;;1.50;1.40;;;;;;;;;;4783916;30;20644;-82
2024/02/03 17:54:02;;;;;;;3.20;2.60;;;;;;;;;;4794803;30;20541;-82
2024/02/03 17:57:06;;;;;;;14.33;8.33;;;;;;;;;;4774101;30;20661;-83
2024/02/03 18:00:12;;;;;;;6.70;4.30;;;;;;;;;;4784538;30;20193;-82
2024/02/03 18:03:18;;;;;;;5.07;3.80;;;;;;;;;;4804595;29;20190;-83
2024/02/03 18:06:26;;;;;;;4.00;3.47;;;;;;;;;;4784774;30;20190;-82
2024/02/03 18:09:30;;;;;;;2.83;2.50;;;;;;;;;;4783577;30;20197;-82
2024/02/03 18:12:35;;;;;;;14.47;11.13;;;;;;;;;;4784048;30;20189;-82
2024/02/03 18:15:40;;;;;;;5.67;4.80;;;;;;;;;;4784206;30;20209;-82
2024/02/03 18:18:45;;;;;;;4.27;3.00;;;;;;;;;;4783573;30;20574;-83
2024/02/03 18:21:49;;;;;;;4.03;2.70;;;;;;;;;;4794216;30;20229;-82
2024/02/03 18:24:53;;;;;;;5.17;4.10;;;;;;;;;;4783897;30;20194;-82
2024/02/03 18:27:58;;;;;;;7.50;5.00;;;;;;;;;;4793866;29;20703;-83
2024/02/03 18:31:02;;;;;;;9.83;7.80;;;;;;;;;;4782502;30;20507;-82